Time;durP1;ratioP1;P1;durP2;ratioP2;P2;SDS_P1;SDS_P2;PMS_P1;PMS_P2;Temp;Humidity;BMP_temperature;BMP_pressure;BME280_temperature;BME280_humidity;BME280_pressure;Samples;Min_cycle;Max_cycle;Signal;HPM_P1;HPM_P2
2021/12/23 00:00:06;;;;;;;;;;;20.60;47.90;;;;;;5115074;28;19928;-55
2021/12/23 00:02:33;;;;;;;;;;;20.60;47.90;;;;;;5113925;28;20268;-55
2021/12/23 00:05:01;;;;;;;;;;;20.60;47.90;;;;;;5114964;28;19931;-54
2021/12/23 00:07:28;;;;;;;;;;;20.60;47.90;;;;;;5114921;28;20436;-53
2021/12/23 00:10:08;;;;;;;;;;;20.60;47.90;;;;;;5115205;28;20006;-54
2021/12/23 00:12:37;;;;;;;;;;;20.60;47.90;;;;;;5114829;28;19923;-50
2021/12/23 00:15:08;;;;;;;;;;;20.60;47.90;;;;;;5115080;28;20337;-49
2021/12/23 00:25:38;;;;;;;;;;;20.60;48.00;;;;;;5114632;28;19930;-55
2021/12/23 00:28:05;;;;;;;;;;;20.60;48.00;;;;;;5114548;28;19978;-53
2021/12/23 00:30:32;;;;;;;;;;;20.60;48.00;;;;;;5115694;28;19969;-51
2021/12/23 00:32:58;;;;;;;;;;;20.60;48.00;;;;;;5113272;28;19982;-48
2021/12/23 00:35:26;;;;;;;;;;;20.60;48.00;;;;;;5114449;28;20379;-58
2021/12/23 00:38:00;;;;;;;;;;;20.60;48.00;;;;;;5114422;28;19975;-57
2021/12/23 00:40:27;;;;;;;;;;;20.60;48.00;;;;;;5114440;28;20437;-49
2021/12/23 00:42:56;;;;;;;;;;;20.60;48.00;;;;;;5114651;28;19924;-52
2021/12/23 00:45:23;;;;;;;;;;;20.60;48.00;;;;;;5114310;28;19974;-54
2021/12/23 00:47:50;;;;;;;;;;;20.60;48.00;;;;;;5113427;28;19930;-47
2021/12/23 00:50:16;;;;;;;;;;;20.60;48.00;;;;;;5114559;28;19931;-58
2021/12/23 00:52:43;;;;;;;;;;;20.60;48.00;;;;;;5114290;28;19924;-50
2021/12/23 00:55:11;;;;;;;;;;;20.60;48.00;;;;;;5114187;28;19969;-57
2021/12/23 00:57:40;;;;;;;;;;;20.60;48.00;;;;;;5114177;28;19963;-49
2021/12/23 01:00:09;;;;;;;;;;;20.60;48.00;;;;;;5115014;28;20006;-53
2021/12/23 01:02:36;;;;;;;;;;;20.60;48.00;;;;;;5113160;28;20027;-52
2021/12/23 01:05:04;;;;;;;;;;;20.60;48.00;;;;;;5114415;28;19966;-49
2021/12/23 01:07:31;;;;;;;;;;;20.60;48.00;;;;;;5114097;28;19963;-57
2021/12/23 01:09:58;;;;;;;;;;;20.60;48.00;;;;;;5114378;28;20001;-56
2021/12/23 01:12:31;;;;;;;;;;;20.60;48.00;;;;;;5113988;28;19924;-54
2021/12/23 01:15:10;;;;;;;;;;;20.60;48.00;;;;;;5114379;28;20040;-53
2021/12/23 01:17:55;;;;;;;;;;;20.60;48.00;;;;;;5113120;28;20329;-52
2021/12/23 01:20:27;;;;;;;;;;;20.60;48.00;;;;;;5114019;28;19974;-51
2021/12/23 01:22:55;;;;;;;;;;;20.60;48.00;;;;;;5113507;28;19978;-52
2021/12/23 01:25:22;;;;;;;;;;;20.60;48.00;;;;;;5113897;28;20445;-53
2021/12/23 01:27:50;;;;;;;;;;;20.60;48.00;;;;;;5113908;28;19924;-48
2021/12/23 01:30:17;;;;;;;;;;;20.60;48.00;;;;;;5114207;28;20396;-53
2021/12/23 01:32:45;;;;;;;;;;;20.60;48.00;;;;;;5094380;28;19967;-54
2021/12/23 01:35:13;;;;;;;;;;;20.60;48.00;;;;;;5114127;28;19924;-56
2021/12/23 01:37:40;;;;;;;;;;;20.60;48.00;;;;;;5114133;28;19959;-54
2021/12/23 01:40:08;;;;;;;;;;;20.60;48.00;;;;;;5113798;28;20447;-56
2021/12/23 01:42:35;;;;;;;;;;;20.60;48.00;;;;;;5114079;28;20276;-52
2021/12/23 01:45:02;;;;;;;;;;;20.60;48.00;;;;;;5115847;28;19966;-50
2021/12/23 01:47:29;;;;;;;;;;;20.60;48.10;;;;;;5116920;27;20010;-48
2021/12/23 01:49:56;;;;;;;;;;;20.60;48.00;;;;;;5117928;28;19930;-52
2021/12/23 01:52:23;;;;;;;;;;;20.60;48.10;;;;;;5117316;28;19971;-51
2021/12/23 01:54:50;;;;;;;;;;;20.60;48.00;;;;;;5117812;28;19924;-50
2021/12/23 01:57:18;;;;;;;;;;;20.60;48.00;;;;;;5117784;28;19924;-57
2021/12/23 01:59:45;;;;;;;;;;;20.60;48.00;;;;;;5117411;28;20429;-57
2021/12/23 02:02:12;;;;;;;;;;;20.60;48.00;;;;;;5116146;27;19977;-53
2021/12/23 02:04:39;;;;;;;;;;;20.60;48.00;;;;;;5117346;28;20397;-52
2021/12/23 02:07:06;;;;;;;;;;;20.60;48.00;;;;;;5117647;28;19974;-53
2021/12/23 02:09:33;;;;;;;;;;;20.60;48.00;;;;;;5117254;28;20394;-56
2021/12/23 02:12:00;;;;;;;;;;;20.60;48.00;;;;;;5117484;28;19967;-52
2021/12/23 02:14:27;;;;;;;;;;;20.60;48.00;;;;;;5117096;28;20360;-57
2021/12/23 02:16:54;;;;;;;;;;;20.60;48.00;;;;;;5117106;28;20298;-57
2021/12/23 02:19:21;;;;;;;;;;;20.60;48.00;;;;;;5116268;27;19924;-53
2021/12/23 02:21:48;;;;;;;;;;;20.60;48.00;;;;;;5117185;28;20019;-47
2021/12/23 02:24:17;;;;;;;;;;;20.60;48.00;;;;;;5117080;28;19977;-54
2021/12/23 02:26:44;;;;;;;;;;;20.60;48.00;;;;;;5117229;28;20302;-47
2021/12/23 02:29:11;;;;;;;;;;;20.60;48.00;;;;;;5117180;28;19923;-50
2021/12/23 02:31:38;;;;;;;;;;;20.60;48.00;;;;;;5116828;28;19949;-49
2021/12/23 02:34:05;;;;;;;;;;;20.60;48.50;;;;;;5115621;27;20006;-51
2021/12/23 02:36:32;;;;;;;;;;;20.60;48.00;;;;;;5117022;28;20011;-53
2021/12/23 02:38:59;;;;;;;;;;;20.60;48.00;;;;;;5116968;28;19959;-52
2021/12/23 02:41:26;;;;;;;;;;;20.60;48.00;;;;;;5116616;28;20387;-58
2021/12/23 02:43:54;;;;;;;;;;;20.60;48.00;;;;;;5116878;28;19931;-48
2021/12/23 02:46:21;;;;;;;;;;;20.60;47.90;;;;;;5116836;28;19923;-53
2021/12/23 02:48:48;;;;;;;;;;;20.60;48.00;;;;;;5115540;27;19975;-51
2021/12/23 02:51:16;;;;;;;;;;;20.60;47.90;;;;;;5116508;28;19927;-52
2021/12/23 02:53:44;;;;;;;;;;;20.60;47.90;;;;;;5116180;28;20381;-53
2021/12/23 02:56:15;;;;;;;;;;;20.60;47.90;;;;;;5115513;28;19924;-55
2021/12/23 02:58:44;;;;;;;;;;;20.60;47.90;;;;;;5117162;28;19974;-48
2021/12/23 03:01:12;;;;;;;;;;;20.60;47.90;;;;;;5116225;28;19924;-51
2021/12/23 03:03:40;;;;;;;;;;;20.60;47.90;;;;;;5115157;27;19924;-46
2021/12/23 03:06:07;;;;;;;;;;;20.60;48.00;;;;;;5116470;28;19972;-52
2021/12/23 03:08:42;;;;;;;;;;;20.60;48.00;;;;;;5116390;28;20007;-49
2021/12/23 03:11:10;;;;;;;;;;;20.60;48.00;;;;;;5116057;28;19967;-55
2021/12/23 03:13:38;;;;;;;;;;;20.60;48.00;;;;;;5116256;28;19993;-50
2021/12/23 03:16:05;;;;;;;;;;;20.60;47.90;;;;;;5115975;28;20436;-51
2021/12/23 03:18:33;;;;;;;;;;;20.60;47.90;;;;;;5114983;28;19923;-49
2021/12/23 03:21:01;;;;;;;;;;;20.60;47.90;;;;;;5115866;28;19970;-54
2021/12/23 03:23:28;;;;;;;;;;;20.60;47.90;;;;;;5115360;28;20401;-51
2021/12/23 03:25:55;;;;;;;;;;;20.60;47.90;;;;;;5116086;28;19971;-52
2021/12/23 03:28:22;;;;;;;;;;;20.60;48.00;;;;;;5116037;28;19963;-54
2021/12/23 03:30:49;;;;;;;;;;;20.60;48.00;;;;;;5115652;28;20394;-49
2021/12/23 03:33:16;;;;;;;;;;;20.60;47.90;;;;;;5114512;28;19936;-51
2021/12/23 03:35:43;;;;;;;;;;;20.60;47.90;;;;;;5115880;28;19966;-51
2021/12/23 03:38:10;;;;;;;;;;;20.60;48.50;;;;;;5115503;28;19923;-49
2021/12/23 03:40:37;;;;;;;;;;;20.60;47.90;;;;;;5115773;28;20051;-57
2021/12/23 03:43:04;;;;;;;;;;;20.60;47.90;;;;;;5115772;28;20331;-53
2021/12/23 03:45:31;;;;;;;;;;;20.60;47.90;;;;;;5115687;28;20364;-53
2021/12/23 03:47:58;;;;;;;;;;;20.60;47.90;;;;;;5115644;28;19960;-47
2021/12/23 03:50:25;;;;;;;;;;;20.60;47.90;;;;;;5114311;28;19967;-53
2021/12/23 03:52:52;;;;;;;;;;;20.60;47.90;;;;;;5114964;28;20010;-57
2021/12/23 03:55:19;;;;;;;;;;;20.50;47.80;;;;;;5115462;28;19959;-57
2021/12/23 03:57:47;;;;;;;;;;;20.60;47.90;;;;;;5115133;28;20018;-55
2021/12/23 04:00:15;;;;;;;;;;;20.60;47.90;;;;;;5115068;28;20034;-58
2021/12/23 04:02:42;;;;;;;;;;;20.60;47.90;;;;;;5115782;28;19957;-56
2021/12/23 04:05:10;;;;;;;;;;;20.50;47.80;;;;;;5096053;28;19930;-53
2021/12/23 04:07:38;;;;;;;;;;;20.50;47.80;;;;;;5114953;28;20018;-52
2021/12/23 04:10:07;;;;;;;;;;;20.60;47.90;;;;;;5114863;28;20387;-50
2021/12/23 04:12:34;;;;;;;;;;;20.50;47.80;;;;;;5115674;28;20478;-53
2021/12/23 04:15:00;;;;;;;;;;;20.50;47.80;;;;;;5114735;28;19932;-54
2021/12/23 04:17:27;;;;;;;;;;;20.50;47.80;;;;;;5115083;28;19953;-46
2021/12/23 04:20:02;;;;;;;;;;;20.50;47.80;;;;;;5113445;28;19967;-54
2021/12/23 04:22:29;;;;;;;;;;;20.50;47.80;;;;;;5114454;28;20007;-50
2021/12/23 04:24:56;;;;;;;;;;;20.50;47.80;;;;;;5114976;28;19998;-57
2021/12/23 04:27:23;;;;;;;;;;;20.50;47.80;;;;;;5114578;28;19924;-54
2021/12/23 04:29:50;;;;;;;;;;;20.50;47.80;;;;;;5114563;28;20426;-45
2021/12/23 04:32:17;;;;;;;;;;;20.50;47.80;;;;;;5114720;28;20002;-48
2021/12/23 04:34:44;;;;;;;;;;;20.50;47.80;;;;;;5113101;28;19975;-56
2021/12/23 04:37:13;;;;;;;;;;;20.50;47.80;;;;;;5114450;28;19981;-46
2021/12/23 04:39:41;;;;;;;;;;;20.50;47.80;;;;;;5114734;28;20030;-46
2021/12/23 04:42:08;;;;;;;;;;;20.50;47.90;;;;;;5114690;28;20028;-46
2021/12/23 04:44:35;;;;;;;;;;;20.50;47.80;;;;;;5114671;28;20041;-48
2021/12/23 04:47:02;;;;;;;;;;;20.50;47.90;;;;;;5114632;28;20337;-48
2021/12/23 04:49:29;;;;;;;;;;;20.50;47.80;;;;;;5113292;28;19924;-48
2021/12/23 04:51:55;;;;;;;;;;;20.50;47.90;;;;;;5114589;28;19924;-50
2021/12/23 04:54:22;;;;;;;;;;;20.50;47.90;;;;;;5114409;28;20282;-50
2021/12/23 04:56:49;;;;;;;;;;;20.50;47.80;;;;;;5114220;28;19924;-56
2021/12/23 04:59:17;;;;;;;;;;;20.50;47.80;;;;;;5114532;28;19967;-54
2021/12/23 05:01:44;;;;;;;;;;;20.50;47.80;;;;;;5114441;28;19987;-52
2021/12/23 05:04:11;;;;;;;;;;;20.50;47.80;;;;;;5113185;28;19978;-49
2021/12/23 05:06:38;;;;;;;;;;;20.50;47.80;;;;;;5114473;28;19930;-45
2021/12/23 05:09:05;;;;;;;;;;;20.50;47.80;;;;;;5114082;28;20371;-51
2021/12/23 05:11:32;;;;;;;;;;;20.50;47.80;;;;;;5114096;28;19931;-48
2021/12/23 05:13:59;;;;;;;;;;;20.50;47.80;;;;;;5113986;28;19924;-50
2021/12/23 05:16:26;;;;;;;;;;;20.50;47.80;;;;;;5114336;28;19974;-47
2021/12/23 05:18:53;;;;;;;;;;;20.50;47.80;;;;;;5096418;28;19972;-50
2021/12/23 05:21:20;;;;;;;;;;;20.50;47.80;;;;;;5116946;27;19976;-56
2021/12/23 05:23:47;;;;;;;;;;;20.50;47.80;;;;;;5099783;28;19924;-50
2021/12/23 05:26:14;;;;;;;;;;;20.50;47.80;;;;;;5118413;28;20015;-52
2021/12/23 05:28:41;;;;;;;;;;;20.50;47.80;;;;;;5118376;28;20015;-53
2021/12/23 05:31:08;;;;;;;;;;;20.50;47.80;;;;;;5117994;28;19966;-55
2021/12/23 05:33:35;;;;;;;;;;;20.50;47.80;;;;;;5118072;28;19923;-50
2021/12/23 05:36:03;;;;;;;;;;;20.50;47.80;;;;;;5117147;28;19977;-53
2021/12/23 05:38:30;;;;;;;;;;;20.50;47.80;;;;;;5117848;28;19923;-52
2021/12/23 05:40:56;;;;;;;;;;;20.50;47.80;;;;;;5117835;28;20429;-52
2021/12/23 05:43:23;;;;;;;;;;;20.50;47.80;;;;;;5118067;28;19953;-50
2021/12/23 05:45:51;;;;;;;;;;;20.50;47.80;;;;;;5118038;28;19924;-53
2021/12/23 05:48:18;;;;;;;;;;;20.50;47.80;;;;;;5117950;28;19924;-56
2021/12/23 05:50:45;;;;;;;;;;;20.50;47.80;;;;;;5116808;27;20295;-53
2021/12/23 05:53:12;;;;;;;;;;;20.50;47.80;;;;;;5117595;28;19990;-50
2021/12/23 05:55:39;;;;;;;;;;;20.50;48.40;;;;;;5117806;28;19976;-52
2021/12/23 05:58:06;;;;;;;;;;;20.50;47.80;;;;;;5117804;28;20010;-49
2021/12/23 06:00:33;;;;;;;;;;;20.50;47.80;;;;;;5117451;28;19974;-52
2021/12/23 06:03:01;;;;;;;;;;;20.50;47.80;;;;;;5117598;28;19927;-50
2021/12/23 06:05:29;;;;;;;;;;;20.50;47.80;;;;;;5116055;28;20390;-57
2021/12/23 06:07:56;;;;;;;;;;;20.50;47.80;;;;;;5117297;28;19979;-51
2021/12/23 06:10:23;;;;;;;;;;;20.50;47.80;;;;;;5117543;28;19947;-48
2021/12/23 06:12:50;;;;;;;;;;;20.50;47.80;;;;;;5117191;28;19924;-49
2021/12/23 06:15:17;;;;;;;;;;;20.50;47.80;;;;;;5117379;28;20007;-56
2021/12/23 06:17:45;;;;;;;;;;;20.50;47.80;;;;;;5117068;28;19931;-55
2021/12/23 06:20:12;;;;;;;;;;;20.50;47.80;;;;;;5116076;28;19970;-48
2021/12/23 06:22:39;;;;;;;;;;;20.50;47.80;;;;;;5116747;28;19924;-50
2021/12/23 06:25:08;;;;;;;;;;;20.50;47.80;;;;;;5117005;28;20360;-49
2021/12/23 06:27:35;;;;;;;;;;;20.50;47.80;;;;;;5116910;28;19958;-56
2021/12/23 06:30:04;;;;;;;;;;;20.50;47.80;;;;;;5116906;28;20007;-52
2021/12/23 06:32:31;;;;;;;;;;;20.50;47.80;;;;;;5116928;28;19966;-52
2021/12/23 06:34:57;;;;;;;;;;;20.50;47.80;;;;;;5115963;28;19970;-57
2021/12/23 06:37:24;;;;;;;;;;;20.50;47.80;;;;;;5116761;28;20217;-50
2021/12/23 06:39:51;;;;;;;;;;;20.50;47.80;;;;;;5116586;28;19931;-48
2021/12/23 06:42:21;;;;;;;;;;;20.50;47.80;;;;;;5116619;28;20007;-52
2021/12/23 06:44:47;;;;;;;;;;;20.50;47.80;;;;;;5116495;28;20378;-52
2021/12/23 06:47:14;;;;;;;;;;;20.50;47.80;;;;;;5116809;28;20413;-55
2021/12/23 06:49:41;;;;;;;;;;;20.50;47.80;;;;;;5116477;28;20014;-52
2021/12/23 06:52:08;;;;;;;;;;;20.50;47.80;;;;;;5115323;28;19923;-55
2021/12/23 06:54:41;;;;;;;;;;;20.50;47.80;;;;;;5116249;28;19986;-47
2021/12/23 06:57:08;;;;;;;;;;;20.50;47.80;;;;;;5116362;28;20383;-54
2021/12/23 06:59:35;;;;;;;;;;;20.50;47.80;;;;;;5116263;28;20026;-50
2021/12/23 07:02:02;;;;;;;;;;;20.40;47.70;;;;;;5116453;28;19924;-54
2021/12/23 07:04:33;;;;;;;;;;;20.50;47.80;;;;;;5116006;28;19928;-54
2021/12/23 07:07:10;;;;;;;;;;;20.40;47.70;;;;;;5115178;28;19923;-54
2021/12/23 07:09:42;;;;;;;;;;;20.40;47.70;;;;;;5116385;28;20359;-48
2021/12/23 07:12:10;;;;;;;;;;;20.40;47.70;;;;;;5116323;28;19924;-49
2021/12/23 07:14:38;;;;;;;;;;;20.40;47.70;;;;;;5116222;28;19971;-51
2021/12/23 07:17:07;;;;;;;;;;;20.40;47.70;;;;;;5116383;28;20011;-49
2021/12/23 07:19:34;;;;;;;;;;;20.40;47.60;;;;;;5117412;28;20379;-51
2021/12/23 07:22:01;;;;;;;;;;;20.40;47.60;;;;;;5128097;27;19927;-49
2021/12/23 07:24:29;;;;;;;;;;;20.40;47.70;;;;;;5138053;27;20006;-46
2021/12/23 07:26:56;;;;;;;;;;;20.50;47.80;;;;;;5136833;27;19924;-51
2021/12/23 07:29:23;;;;;;;;;;;20.40;47.60;;;;;;5136958;27;19958;-49
2021/12/23 07:31:49;;;;;;;;;;;20.40;47.70;;;;;;5136900;27;19924;-52
2021/12/23 07:34:16;;;;;;;;;;;20.40;47.60;;;;;;5136261;27;19923;-55
2021/12/23 07:36:43;;;;;;;;;;;20.50;47.70;;;;;;5132723;27;19924;-47
2021/12/23 07:39:10;;;;;;;;;;;20.50;47.70;;;;;;5136096;27;20422;-53
2021/12/23 07:41:57;;;;;;;;;;;20.40;47.60;;;;;;5135155;27;20299;-52
2021/12/23 07:44:34;;;;;;;;;;;20.50;47.70;;;;;;5136220;27;19930;-47
2021/12/23 07:47:02;;;;;;;;;;;20.50;47.70;;;;;;5135895;27;19966;-53
2021/12/23 07:49:29;;;;;;;;;;;20.50;47.70;;;;;;5136155;27;19970;-52
2021/12/23 07:51:55;;;;;;;;;;;20.50;47.60;;;;;;5134331;27;20018;-47
2021/12/23 07:54:23;;;;;;;;;;;20.50;47.60;;;;;;5135455;27;19974;-45
2021/12/23 07:56:50;;;;;;;;;;;20.50;47.60;;;;;;5136002;27;20018;-56
2021/12/23 07:59:17;;;;;;;;;;;20.50;47.60;;;;;;5135675;27;19962;-50
2021/12/23 08:01:44;;;;;;;;;;;20.50;47.60;;;;;;5135814;27;19924;-55
2021/12/23 08:04:11;;;;;;;;;;;20.50;47.60;;;;;;5136686;27;19958;-52
2021/12/23 08:06:38;;;;;;;;;;;20.50;47.50;;;;;;5115716;27;19923;-48
2021/12/23 08:09:05;;;;;;;;;;;20.50;47.50;;;;;;5135440;27;20017;-53
2021/12/23 08:11:32;;;;;;;;;;;20.50;47.40;;;;;;5135750;27;19927;-56
2021/12/23 08:13:59;;;;;;;;;;;20.50;47.40;;;;;;5135313;27;19963;-56
2021/12/23 08:16:26;;;;;;;;;;;20.50;47.40;;;;;;5135313;27;19963;-53
2021/12/23 08:18:53;;;;;;;;;;;20.50;47.40;;;;;;5135613;27;19923;-53
2021/12/23 08:21:22;;;;;;;;;;;20.50;47.40;;;;;;5115050;27;19975;-50
2021/12/23 08:23:49;;;;;;;;;;;20.60;47.40;;;;;;5134868;27;19978;-53
2021/12/23 08:26:16;;;;;;;;;;;20.60;47.30;;;;;;5135156;27;20390;-54
2021/12/23 08:28:43;;;;;;;;;;;20.60;47.30;;;;;;5135445;27;20267;-49
2021/12/23 08:31:10;;;;;;;;;;;20.60;47.30;;;;;;5135155;27;20421;-53
2021/12/23 08:33:37;;;;;;;;;;;20.60;47.30;;;;;;5135070;27;20455;-54
2021/12/23 08:36:04;;;;;;;;;;;20.60;47.20;;;;;;5134929;27;19930;-55
2021/12/23 08:38:31;;;;;;;;;;;20.60;47.20;;;;;;5114289;27;20010;-52
2021/12/23 08:40:58;;;;;;;;;;;20.60;47.20;;;;;;5115811;28;20318;-53
2021/12/23 08:43:25;;;;;;;;;;;20.60;47.20;;;;;;5096744;28;19931;-51
2021/12/23 08:45:52;;;;;;;;;;;20.60;47.20;;;;;;5114627;28;19969;-55
2021/12/23 08:48:19;;;;;;;;;;;20.60;47.10;;;;;;5114584;28;19989;-50
2021/12/23 08:50:46;;;;;;;;;;;20.60;47.10;;;;;;5114200;28;19970;-57
2021/12/23 08:53:13;;;;;;;;;;;20.60;47.00;;;;;;5113477;28;19923;-49
2021/12/23 08:55:40;;;;;;;;;;;20.60;47.00;;;;;;5114088;28;20453;-48
2021/12/23 08:58:08;;;;;;;;;;;20.60;47.00;;;;;;5114102;28;19924;-56
2021/12/23 09:00:36;;;;;;;;;;;20.60;46.90;;;;;;5114432;28;20123;-55
2021/12/23 09:03:05;;;;;;;;;;;20.70;47.00;;;;;;5096075;28;20398;-52
2021/12/23 09:05:32;;;;;;;;;;;20.70;47.00;;;;;;5114062;28;19923;-54
2021/12/23 09:07:59;;;;;;;;;;;20.70;46.90;;;;;;5113040;28;19930;-54
2021/12/23 09:10:26;;;;;;;;;;;20.70;46.90;;;;;;5113789;28;19927;-54
2021/12/23 09:12:53;;;;;;;;;;;20.70;46.90;;;;;;5114297;28;20335;-54
2021/12/23 09:15:20;;;;;;;;;;;20.70;46.80;;;;;;5114786;28;19985;-50
2021/12/23 09:17:48;;;;;;;;;;;20.70;46.80;;;;;;5114024;28;19924;-50
2021/12/23 09:20:15;;;;;;;;;;;20.70;46.80;;;;;;5114273;28;19935;-55
2021/12/23 09:22:48;;;;;;;;;;;20.80;46.80;;;;;;5112489;28;19924;-50
2021/12/23 09:25:24;;;;;;;;;;;20.80;46.80;;;;;;5114211;28;19970;-52
2021/12/23 09:28:24;;;;;;;;;;;20.80;46.80;;;;;;5114467;28;20336;-51
2021/12/23 09:33:38;;;;;;;;;;;20.80;47.30;;;;;;5113801;28;19924;-51
2021/12/23 09:36:05;;;;;;;;;;;20.80;46.60;;;;;;5114073;28;19924;-51
2021/12/23 09:38:32;;;;;;;;;;;20.80;46.60;;;;;;5112478;28;19967;-51
2021/12/23 09:41:13;;;;;;;;;;;20.80;46.60;;;;;;5096172;28;19958;-55
2021/12/23 09:43:41;;;;;;;;;;;20.90;46.60;;;;;;5113983;28;19955;-55
2021/12/23 09:46:10;;;;;;;;;;;20.90;46.50;;;;;;5113970;28;19923;-53
2021/12/23 09:48:42;;;;;;;;;;;20.90;46.50;;;;;;5114007;28;19923;-49
2021/12/23 09:51:11;;;;;;;;;;;20.90;46.50;;;;;;5113705;28;19924;-50
2021/12/23 09:53:40;;;;;;;;;;;20.90;46.40;;;;;;5112249;28;19924;-53
2021/12/23 09:56:09;;;;;;;;;;;20.90;46.40;;;;;;5114417;28;20306;-53
2021/12/23 09:58:37;;;;;;;;;;;21.00;46.40;;;;;;5113886;28;19980;-50
2021/12/23 10:01:04;;;;;;;;;;;21.00;46.40;;;;;;5113623;28;19924;-48
2021/12/23 10:03:32;;;;;;;;;;;21.00;46.30;;;;;;5113406;28;19928;-54
2021/12/23 10:05:59;;;;;;;;;;;21.00;46.30;;;;;;5115212;28;19974;-53
2021/12/23 10:08:27;;;;;;;;;;;21.00;46.20;;;;;;5115983;28;20011;-46
2021/12/23 10:11:23;;;;;;;;;;;21.10;46.30;;;;;;5117458;28;19931;-47
2021/12/23 10:30:11;;;;;;;;;;;21.20;46.00;;;;;;5117271;28;19967;-54
2021/12/23 10:31:43;;;;;;;;;;;21.20;46.00;;;;;;5103651;28;20007;-46
2021/12/23 10:37:17;;;;;;;;;;;21.20;46.00;;;;;;5117864;28;19924;-50
2021/12/23 10:39:48;;;;;;;;;;;21.20;45.90;;;;;;5115799;28;19930;-55
2021/12/23 10:42:26;;;;;;;;;;;21.20;45.90;;;;;;5116966;28;19957;-55
2021/12/23 10:44:57;;;;;;;;;;;21.30;46.00;;;;;;5116941;28;20333;-55
2021/12/23 10:50:24;;;;;;;;;;;21.30;45.90;;;;;;5116559;28;19971;-46
2021/12/23 10:52:56;;;;;;;;;;;21.30;45.80;;;;;;5115053;28;19924;-55
2021/12/23 10:58:08;;;;;;;;;;;21.30;45.80;;;;;;5116684;28;19985;-49
2021/12/23 11:00:37;;;;;;;;;;;21.30;45.80;;;;;;5116612;28;20023;-54
2021/12/23 11:03:07;;;;;;;;;;;21.30;45.70;;;;;;5116456;28;19923;-52
2021/12/23 11:05:40;;;;;;;;;;;21.40;45.80;;;;;;5116175;28;19949;-54
2021/12/23 11:08:32;;;;;;;;;;;21.40;45.80;;;;;;5115013;27;19924;-56
2021/12/23 11:41:34;;;;;;;;;;;21.50;45.30;;;;;;5115875;28;20372;-56
2021/12/23 11:44:02;;;;;;;;;;;21.50;45.30;;;;;;5115755;28;20322;-51
2021/12/23 11:46:36;;;;;;;;;;;21.60;45.40;;;;;;5115381;28;19924;-49
2021/12/23 11:49:07;;;;;;;;;;;21.60;45.30;;;;;;5115739;28;19946;-49
2021/12/23 11:51:46;;;;;;;;;;;21.50;45.20;;;;;;5115679;28;19955;-47
2021/12/23 11:54:15;;;;;;;;;;;21.60;45.30;;;;;;5113983;27;19928;-49
2021/12/23 11:56:46;;;;;;;;;;;21.60;45.30;;;;;;5115118;28;20016;-51
2021/12/23 11:59:14;;;;;;;;;;;21.60;45.30;;;;;;5115213;28;19924;-48
2021/12/23 12:01:43;;;;;;;;;;;21.60;45.30;;;;;;5115318;28;19966;-48
2021/12/23 12:04:13;;;;;;;;;;;21.60;45.30;;;;;;5097401;28;19930;-49
2021/12/23 12:06:45;;;;;;;;;;;21.60;45.30;;;;;;5115324;28;20340;-52
2021/12/23 12:09:16;;;;;;;;;;;21.60;45.30;;;;;;5114126;27;20030;-54
2021/12/23 12:11:48;;;;;;;;;;;21.60;45.30;;;;;;5114949;28;19975;-55
2021/12/23 12:14:30;;;;;;;;;;;21.60;45.30;;;;;;5115149;28;20010;-52
2021/12/23 12:17:17;;;;;;;;;;;21.60;45.30;;;;;;5115600;28;20387;-49
2021/12/23 12:19:57;;;;;;;;;;;21.60;45.30;;;;;;5114778;28;20280;-55
2021/12/23 12:22:43;;;;;;;;;;;21.60;45.20;;;;;;5096708;28;19927;-48
2021/12/23 12:25:10;;;;;;;;;;;21.60;45.30;;;;;;5113377;28;20010;-58
2021/12/23 12:27:43;;;;;;;;;;;21.60;45.20;;;;;;5115474;28;20019;-54
2021/12/23 12:30:10;;;;;;;;;;;21.60;45.20;;;;;;5114828;28;20015;-49
2021/12/23 12:32:37;;;;;;;;;;;21.60;45.20;;;;;;5096441;28;20402;-55
2021/12/23 12:35:13;;;;;;;;;;;21.60;45.20;;;;;;5114782;28;20014;-56
2021/12/23 12:37:41;;;;;;;;;;;21.60;45.20;;;;;;5114813;28;19928;-51
2021/12/23 12:40:09;;;;;;;;;;;21.60;45.20;;;;;;5113291;28;20504;-52
2021/12/23 12:42:41;;;;;;;;;;;21.60;45.20;;;;;;5114735;28;20385;-52
2021/12/23 12:45:13;;;;;;;;;;;21.60;45.20;;;;;;5096669;28;19942;-55
2021/12/23 12:47:49;;;;;;;;;;;21.60;45.20;;;;;;5114389;28;19924;-54
2021/12/23 12:50:20;;;;;;;;;;;21.60;45.20;;;;;;5114389;28;19924;-56
2021/12/23 12:52:50;;;;;;;;;;;21.60;45.20;;;;;;5114414;28;19988;-57
2021/12/23 12:55:26;;;;;;;;;;;21.60;45.20;;;;;;5113336;28;19969;-55
2021/12/23 12:57:55;;;;;;;;;;;21.60;45.20;;;;;;5097827;28;19931;-49
2021/12/23 13:00:31;;;;;;;;;;;21.60;45.20;;;;;;5114474;28;19924;-55
2021/12/23 13:02:58;;;;;;;;;;;21.60;45.20;;;;;;5114325;28;19923;-56
2021/12/23 13:05:29;;;;;;;;;;;21.70;45.20;;;;;;5114445;28;20306;-55
2021/12/23 13:07:57;;;;;;;;;;;21.70;45.20;;;;;;5114330;28;19935;-53
2021/12/23 13:10:30;;;;;;;;;;;21.70;45.20;;;;;;5113153;28;20306;-51
2021/12/23 13:13:01;;;;;;;;;;;21.70;45.20;;;;;;5114416;28;20011;-49
2021/12/23 13:15:35;;;;;;;;;;;21.70;45.20;;;;;;5114282;28;19931;-50
2021/12/23 13:18:02;;;;;;;;;;;21.70;45.10;;;;;;5114376;28;20344;-55
2021/12/23 13:20:32;;;;;;;;;;;21.70;45.10;;;;;;5114311;28;20001;-50
2021/12/23 13:23:02;;;;;;;;;;;21.70;45.10;;;;;;5113631;28;20339;-50
2021/12/23 13:25:30;;;;;;;;;;;21.70;45.10;;;;;;5113005;28;20023;-49
2021/12/23 13:27:59;;;;;;;;;;;21.70;45.10;;;;;;5114183;28;19941;-52
2021/12/23 13:30:26;;;;;;;;;;;21.70;45.10;;;;;;5114242;28;19984;-50
2021/12/23 13:33:00;;;;;;;;;;;21.70;45.10;;;;;;5114091;28;19924;-52
2021/12/23 13:35:28;;;;;;;;;;;21.70;45.70;;;;;;5114149;28;19963;-48
2021/12/23 13:37:55;;;;;;;;;;;21.70;45.10;;;;;;5114060;28;19971;-54
2021/12/23 13:40:26;;;;;;;;;;;21.70;45.10;;;;;;5113349;28;20018;-51
2021/12/23 13:42:53;;;;;;;;;;;21.70;45.10;;;;;;5117873;28;20007;-53
2021/12/23 13:45:20;;;;;;;;;;;21.70;45.10;;;;;;5118112;28;20314;-50
2021/12/23 13:47:50;;;;;;;;;;;21.70;45.10;;;;;;5118610;28;19928;-55
2021/12/23 13:50:17;;;;;;;;;;;21.70;45.10;;;;;;5118007;28;20007;-58
2021/12/23 13:52:47;;;;;;;;;;;21.70;45.20;;;;;;5117773;28;20299;-54
2021/12/23 13:55:15;;;;;;;;;;;21.70;45.10;;;;;;5116341;27;19923;-55
2021/12/23 13:57:46;;;;;;;;;;;21.70;45.20;;;;;;5117524;28;19972;-53
2021/12/23 14:00:18;;;;;;;;;;;21.70;45.10;;;;;;5117555;28;19931;-52
2021/12/23 14:02:46;;;;;;;;;;;21.70;45.20;;;;;;5117334;28;20015;-56
2021/12/23 14:05:13;;;;;;;;;;;21.70;45.20;;;;;;5117175;28;20361;-49
2021/12/23 14:07:42;;;;;;;;;;;21.70;45.20;;;;;;5116965;28;19923;-49
2021/12/23 14:10:11;;;;;;;;;;;21.70;45.20;;;;;;5116173;27;20018;-55
2021/12/23 14:12:52;;;;;;;;;;;21.70;45.20;;;;;;5117206;28;20375;-57
2021/12/23 14:15:19;;;;;;;;;;;21.70;45.20;;;;;;5117182;28;19945;-49
2021/12/23 14:17:47;;;;;;;;;;;21.70;45.30;;;;;;5117425;28;19959;-55
2021/12/23 14:23:16;;;;;;;;;;;21.70;45.40;;;;;;5116665;28;19999;-50
2021/12/23 14:25:59;;;;;;;;;;;21.70;45.40;;;;;;5116217;28;19975;-55
2021/12/23 14:28:29;;;;;;;;;;;21.70;45.40;;;;;;5116984;28;19930;-51
2021/12/23 14:30:55;;;;;;;;;;;21.70;45.40;;;;;;5117146;28;19928;-49
2021/12/23 14:33:36;;;;;;;;;;;21.70;45.50;;;;;;5117001;28;19924;-56
2021/12/23 14:36:11;;;;;;;;;;;21.70;45.50;;;;;;5116932;28;19924;-54
2021/12/23 14:38:39;;;;;;;;;;;21.70;45.50;;;;;;5117037;28;19953;-53
2021/12/23 14:41:08;;;;;;;;;;;21.70;45.50;;;;;;5115712;27;20002;-49
2021/12/23 14:43:44;;;;;;;;;;;21.70;45.50;;;;;;5116953;28;19962;-55
2021/12/23 14:46:13;;;;;;;;;;;21.70;45.50;;;;;;5116877;28;20333;-53
2021/12/23 14:48:54;;;;;;;;;;;21.70;45.50;;;;;;5116619;28;20391;-57
2021/12/23 14:51:24;;;;;;;;;;;21.70;45.60;;;;;;5116250;28;19924;-49
2021/12/23 14:54:05;;;;;;;;;;;21.70;45.60;;;;;;5115713;28;20018;-54
2021/12/23 14:56:32;;;;;;;;;;;21.70;45.60;;;;;;5115105;27;19945;-56
2021/12/23 14:59:04;;;;;;;;;;;21.70;45.70;;;;;;5116217;28;19973;-49
2021/12/23 15:01:31;;;;;;;;;;;21.70;45.80;;;;;;5116521;28;20272;-54
2021/12/23 15:04:03;;;;;;;;;;;21.70;45.80;;;;;;5116297;28;19967;-55
2021/12/23 15:06:30;;;;;;;;;;;21.70;45.80;;;;;;5081455;28;19977;-55
2021/12/23 15:08:57;;;;;;;;;;;21.70;45.90;;;;;;5116234;28;19923;-57
2021/12/23 15:11:30;;;;;;;;;;;21.70;45.90;;;;;;5097185;28;19924;-57
2021/12/23 15:13:57;;;;;;;;;;;21.70;46.00;;;;;;5115938;28;20018;-47
2021/12/23 15:16:28;;;;;;;;;;;21.70;45.90;;;;;;5115861;28;19931;-51
2021/12/23 15:19:10;;;;;;;;;;;21.70;45.90;;;;;;5115906;28;19924;-54
2021/12/23 15:21:45;;;;;;;;;;;21.70;46.00;;;;;;5116146;28;19924;-57
2021/12/23 15:24:15;;;;;;;;;;;21.70;46.00;;;;;;5115553;28;19924;-57
2021/12/23 15:26:49;;;;;;;;;;;21.70;46.00;;;;;;5114500;28;19923;-51
2021/12/23 15:29:18;;;;;;;;;;;21.70;46.00;;;;;;5115923;28;19923;-57
2021/12/23 15:31:54;;;;;;;;;;;21.70;46.00;;;;;;5115803;28;19945;-48
2021/12/23 15:34:21;;;;;;;;;;;21.70;46.00;;;;;;5115966;28;19924;-57